createdAt,value
2017-11-06T00:00:35.274Z,91.9
2017-11-06T00:01:34.660Z,92.1
2017-11-06T00:02:33.538Z,92.1
2017-11-06T00:03:32.550Z,91.8
2017-11-06T00:04:31.694Z,91.6
2017-11-06T00:05:30.979Z,91.4
2017-11-06T00:06:30.118Z,91.7
2017-11-06T00:07:29.001Z,91.2
2017-11-06T00:08:28.282Z,91.7
2017-11-06T00:08:58.880Z,91.7
2017-11-06T00:09:29.345Z,91.6
2017-11-06T00:09:59.808Z,91.6
2017-11-06T00:11:25.427Z,91.5
2017-11-06T00:12:24.579Z,91.8
2017-11-06T00:13:23.594Z,91.5
2017-11-06T00:14:22.749Z,91.6
2017-11-06T00:15:21.764Z,91.6
2017-11-06T00:16:20.783Z,91.8
2017-11-06T00:17:19.793Z,91.5
2017-11-06T00:18:19.314Z,91.5
2017-11-06T00:19:17.972Z,91.7
2017-11-06T00:19:48.664Z,91.7
2017-11-06T00:20:19.129Z,91.8
2017-11-06T00:20:49.590Z,91.8
2017-11-06T00:22:15.539Z,91.8
2017-11-06T00:23:14.322Z,91.6
2017-11-06T00:24:13.604Z,91.3
2017-11-06T00:25:12.753Z,91.1
2017-11-06T00:26:11.769Z,91.3
2017-11-06T00:27:10.914Z,91.5
2017-11-06T00:28:09.848Z,91.5
2017-11-06T00:29:08.759Z,91.5
2017-11-06T00:30:08.044Z,91.6
2017-11-06T00:31:07.324Z,91.5
2017-11-06T00:32:06.100Z,91.6
2017-11-06T00:33:04.988Z,91.5
2017-11-06T00:34:04.535Z,91.6
2017-11-06T00:35:03.199Z,91.6
2017-11-06T00:36:02.582Z,91.7
2017-11-06T00:37:01.358Z,91.9
2017-11-06T00:38:00.885Z,91.8
2017-11-06T00:38:59.805Z,92
2017-11-06T00:39:58.828Z,91.7
2017-11-06T00:40:58.106Z,92.2
2017-11-06T00:41:56.749Z,92.2
2017-11-06T00:42:56.132Z,92.4
2017-11-06T00:43:55.283Z,92.1
2017-11-06T00:44:54.161Z,92.1
2017-11-06T00:45:53.566Z,91.9
2017-11-06T00:46:52.723Z,92.3
2017-11-06T00:47:51.746Z,92.2
2017-11-06T00:48:50.893Z,92.3
2017-11-06T00:49:49.676Z,92.3
2017-11-06T00:50:20.133Z,92.3
2017-11-06T00:50:50.593Z,92.4
2017-11-06T00:51:21.050Z,92.4
2017-11-06T00:52:46.877Z,91.4
2017-11-06T00:53:45.896Z,91.6
2017-11-06T00:54:45.044Z,91.2
2017-11-06T00:55:44.451Z,91.4
2017-11-06T00:56:43.351Z,91.6
2017-11-06T00:57:42.632Z,91.5
2017-11-06T00:58:41.438Z,90.5
2017-11-06T00:59:40.736Z,90.9
2017-11-06T01:00:39.748Z,90.3
2017-11-06T01:01:10.345Z,90.3
2017-11-06T01:02:37.813Z,90.9
2017-11-06T01:03:36.829Z,90.9
2017-11-06T01:04:36.213Z,90.8
2017-11-06T01:05:35.009Z,90.5
2017-11-06T01:06:34.164Z,90.1
2017-11-06T01:07:33.316Z,90.3
2017-11-06T01:08:32.605Z,90.6
2017-11-06T01:09:31.485Z,90.6
2017-11-06T01:10:30.634Z,90.7
2017-11-06T01:12:28.539Z,90.6
2017-11-06T01:13:27.582Z,90.5
2017-11-06T01:14:26.869Z,90.9
2017-11-06T01:15:26.012Z,90.7
2017-11-06T01:16:25.023Z,90.7
2017-11-06T01:17:24.179Z,91
2017-11-06T01:18:23.329Z,90.8
2017-11-06T01:19:22.476Z,90.9
2017-11-06T01:20:21.401Z,90.9
2017-11-06T01:22:19.590Z,90.6
2017-11-06T01:23:18.368Z,90.5
2017-11-06T01:24:17.537Z,90.2
2017-11-06T01:25:16.815Z,89.7
2017-11-06T01:26:15.701Z,90.4
2017-11-06T01:27:14.982Z,90
2017-11-06T01:28:14.272Z,90.3
2017-11-06T01:29:12.783Z,90.5
2017-11-06T01:30:11.934Z,90.8
2017-11-06T01:33:09.587Z,89.9
2017-11-06T01:34:08.733Z,90.3
2017-11-06T01:35:07.878Z,89.9
2017-11-06T01:36:06.656Z,90.2
2017-11-06T01:37:05.941Z,90.1
2017-11-06T01:38:04.828Z,90
2017-11-06T01:39:03.857Z,90
2017-11-06T01:40:02.880Z,90.3
2017-11-06T01:42:01.421Z,90.3
2017-11-06T01:43:00.309Z,90.4
2017-11-06T01:43:59.322Z,90.4
2017-11-06T01:44:58.371Z,89.9
2017-11-06T01:45:57.407Z,90.2
2017-11-06T01:46:56.415Z,90.1
2017-11-06T01:47:55.929Z,89.6
2017-11-06T01:48:54.571Z,89.6
2017-11-06T01:49:54.082Z,89.9
2017-11-06T01:52:50.996Z,90
2017-11-06T01:53:50.143Z,89.8
2017-11-06T01:54:49.297Z,90
2017-11-06T01:55:48.302Z,89.8
2017-11-06T01:56:47.592Z,89.7
2017-11-06T01:57:46.763Z,89.8
2017-11-06T01:58:45.403Z,89.7
2017-11-06T01:59:44.556Z,89.7
2017-11-06T02:01:42.954Z,89.7
2017-11-06T02:02:41.967Z,89.5
2017-11-06T02:03:40.759Z,89.8
2017-11-06T02:04:40.171Z,89.6
2017-11-06T02:05:39.274Z,89.6
2017-11-06T02:06:38.294Z,89.7
2017-11-06T02:07:37.168Z,89.3
2017-11-06T02:08:36.554Z,89.5
2017-11-06T02:09:35.434Z,89
2017-11-06T02:11:33.324Z,89.6
2017-11-06T02:12:32.704Z,88.8
2017-11-06T02:13:31.475Z,89
2017-11-06T02:14:30.990Z,89.5
2017-11-06T02:15:30.015Z,88.7
2017-11-06T02:16:29.156Z,89
2017-11-06T02:17:28.168Z,89
2017-11-06T02:18:26.939Z,89
2017-11-06T02:19:26.098Z,88.8
2017-11-06T02:21:24.365Z,88.9
2017-11-06T02:22:23.648Z,88.8
2017-11-06T02:23:22.530Z,88.4
2017-11-06T02:24:21.555Z,88.6
2017-11-06T02:25:20.572Z,88.4
2017-11-06T02:25:50.901Z,88.4
2017-11-06T02:29:16.779Z,89
2017-11-06T02:30:15.958Z,88.8
2017-11-06T02:31:15.477Z,88.6
2017-11-06T02:32:14.135Z,89
2017-11-06T02:33:13.409Z,88.9
2017-11-06T02:34:12.318Z,89
2017-11-06T02:35:11.467Z,88.9
2017-11-06T02:35:42.164Z,88.9
2017-11-06T02:36:12.362Z,88.9
2017-11-06T02:36:42.960Z,88.9
2017-11-06T02:38:08.938Z,89.2
2017-11-06T02:39:07.589Z,89.2
2017-11-06T02:40:06.864Z,88.9
2017-11-06T02:41:05.756Z,88.4
2017-11-06T02:42:05.035Z,88.6
2017-11-06T02:43:04.190Z,88.6
2017-11-06T02:44:03.341Z,88.9
2017-11-06T02:45:01.990Z,89.2
2017-11-06T02:46:01.399Z,88.6
2017-11-06T02:47:00.433Z,89
2017-11-06T02:47:59.452Z,88.6
2017-11-06T02:48:58.865Z,88.1
2017-11-06T02:49:57.756Z,87.9
2017-11-06T02:50:56.913Z,88.5
2017-11-06T02:51:56.058Z,88.6
2017-11-06T02:52:55.216Z,88.5
2017-11-06T02:53:54.095Z,88.3
2017-11-06T02:54:53.239Z,88.6
2017-11-06T02:55:52.311Z,88.1
2017-11-06T02:56:51.462Z,88.2
2017-11-06T02:57:50.488Z,88.6
2017-11-06T02:58:49.507Z,88.4
2017-11-06T02:59:48.156Z,88.1
2017-11-06T03:00:18.629Z,88.1
2017-11-06T03:00:49.222Z,88.1
2017-11-06T03:01:46.625Z,88.3
2017-11-06T03:02:45.552Z,88.2
2017-11-06T03:03:45.071Z,88.3
2017-11-06T03:04:43.846Z,88.3
2017-11-06T03:05:42.989Z,88
2017-11-06T03:06:13.443Z,88
2017-11-06T03:07:41.009Z,88.3
2017-11-06T03:08:40.023Z,88.4
2017-11-06T03:09:39.308Z,88.4
2017-11-06T03:10:38.221Z,88
2017-11-06T03:11:37.363Z,87.7
2017-11-06T03:12:36.508Z,88.1
2017-11-06T03:13:35.526Z,88.2
2017-11-06T03:14:34.452Z,87.8
2017-11-06T03:15:33.835Z,88.2
2017-11-06T03:16:04.206Z,88.2
2017-11-06T03:16:34.445Z,88.3
2017-11-06T03:17:05.038Z,88.3
2017-11-06T03:17:35.133Z,88.6
2017-11-06T03:18:05.863Z,88.6
2017-11-06T03:18:36.073Z,88.3
2017-11-06T03:19:06.673Z,88.3
2017-11-06T03:19:37.406Z,88.3
2017-11-06T03:20:07.866Z,88.3
2017-11-06T03:21:28.412Z,88.3
2017-11-06T03:22:27.064Z,88.5
2017-11-06T03:23:26.208Z,87.7
2017-11-06T03:24:25.226Z,88
2017-11-06T03:25:24.511Z,88.4
2017-11-06T03:26:23.658Z,88.4
2017-11-06T03:27:22.802Z,88.1
2017-11-06T03:28:21.817Z,88.1
2017-11-06T03:29:20.694Z,87.4
2017-11-06T03:30:19.841Z,88
2017-11-06T03:31:19.117Z,88.3
2017-11-06T03:32:18.127Z,88.3
2017-11-06T03:33:17.173Z,88.2
2017-11-06T03:34:16.444Z,88.1
2017-11-06T03:35:15.316Z,88.1
2017-11-06T03:36:14.463Z,88
2017-11-06T03:37:13.227Z,87.8
2017-11-06T03:38:12.263Z,87.4
2017-11-06T03:39:11.676Z,87.3
2017-11-06T03:40:10.310Z,87.2
2017-11-06T03:41:09.817Z,87
2017-11-06T03:42:08.951Z,87.1
2017-11-06T03:43:07.954Z,87.5
2017-11-06T03:44:06.590Z,87.5
2017-11-06T03:45:06.097Z,87.6
2017-11-06T03:46:05.241Z,87.7
2017-11-06T03:47:04.022Z,87.4
2017-11-06T03:49:02.173Z,87.6
2017-11-06T03:50:01.444Z,87.6
2017-11-06T03:51:00.728Z,87.2
2017-11-06T03:51:59.374Z,87
2017-11-06T03:52:58.645Z,87.5
2017-11-06T03:53:57.413Z,87.5
2017-11-06T03:54:56.421Z,87.5
2017-11-06T03:55:55.699Z,87.5
2017-11-06T03:56:54.969Z,87.5
2017-11-06T03:57:53.971Z,87.4
2017-11-06T03:58:24.291Z,87.4
2017-11-06T03:58:54.741Z,87.7
2017-11-06T03:59:25.432Z,87.7
2017-11-06T03:59:55.881Z,87.9
2017-11-06T04:00:50.858Z,87.9
2017-11-06T04:01:50.226Z,88.1
2017-11-06T04:02:49.226Z,87.8
2017-11-06T04:03:48.496Z,87.6
2017-11-06T04:04:47.764Z,87.7
2017-11-06T04:05:46.402Z,87.3
2017-11-06T04:07:44.663Z,87.4
2017-11-06T04:09:42.966Z,87.2
2017-11-06T04:10:42.107Z,87.6
2017-11-06T04:11:41.111Z,86.8
2017-11-06T04:12:39.852Z,87.3
2017-11-06T04:13:39.227Z,87.3
2017-11-06T04:14:38.136Z,87.4
2017-11-06T04:15:37.272Z,87.6
2017-11-06T04:16:36.300Z,87.3
2017-11-06T04:17:35.299Z,87.2
2017-11-06T04:18:34.706Z,87.1
2017-11-06T04:19:33.861Z,86.9
2017-11-06T04:20:32.500Z,86.9
2017-11-06T04:21:31.652Z,86.9
2017-11-06T04:22:30.782Z,86.8
2017-11-06T04:23:29.922Z,86.8
2017-11-06T04:24:28.824Z,87
2017-11-06T04:25:27.956Z,87
2017-11-06T04:26:26.963Z,86.7
2017-11-06T04:27:26.246Z,86.9
2017-11-06T04:28:25.391Z,86.9
2017-11-06T04:29:24.528Z,86.9
2017-11-06T04:30:23.663Z,86.6
2017-11-06T04:31:22.661Z,86.8
2017-11-06T04:32:21.678Z,87
2017-11-06T04:33:20.683Z,86.6
2017-11-06T04:34:19.959Z,86.7
2017-11-06T04:35:18.875Z,87
2017-11-06T04:37:16.768Z,86.6
2017-11-06T04:38:15.905Z,86.5
2017-11-06T04:39:15.049Z,86.7
2017-11-06T04:40:14.052Z,87.1
2017-11-06T04:41:13.318Z,87.2
2017-11-06T04:42:12.091Z,86.8
2017-11-06T04:43:11.103Z,87.4
2017-11-06T04:44:10.747Z,87.1
2017-11-06T04:45:09.243Z,87
2017-11-06T04:46:08.617Z,86.9
2017-11-06T04:48:06.629Z,86.8
2017-11-06T04:49:05.905Z,87.1
2017-11-06T04:50:05.175Z,87
2017-11-06T04:51:03.674Z,87.2
2017-11-06T04:52:03.188Z,86.9
2017-11-06T04:53:01.954Z,86.8
2017-11-06T04:54:01.088Z,87
2017-11-06T04:55:00.369Z,86.9
2017-11-06T04:55:59.283Z,87.2
2017-11-06T04:56:58.299Z,86.8
2017-11-06T04:57:57.441Z,86.8
2017-11-06T04:58:56.576Z,87.1
2017-11-06T04:59:55.581Z,86.9
2017-11-06T05:00:54.726Z,86.9
2017-11-06T05:01:53.743Z,87.1
2017-11-06T05:02:52.888Z,86.9
2017-11-06T05:03:52.026Z,86.7
2017-11-06T05:04:50.814Z,86.6
2017-11-06T05:05:49.954Z,87.2
2017-11-06T05:06:49.215Z,87.1
2017-11-06T05:07:47.867Z,87
2017-11-06T05:08:47.241Z,86.9
2017-11-06T05:10:45.127Z,86.8
2017-11-06T05:11:44.771Z,87.2
2017-11-06T05:12:43.551Z,86.8
2017-11-06T05:13:42.555Z,86.9
2017-11-06T05:14:41.826Z,87
2017-11-06T05:15:12.047Z,87
2017-11-06T05:15:42.263Z,87.1
2017-11-06T05:16:39.893Z,87.2
2017-11-06T05:18:37.908Z,87.3
2017-11-06T05:19:37.302Z,86.9
2017-11-06T05:20:35.806Z,87.2
2017-11-06T05:21:35.445Z,86.9
2017-11-06T05:22:33.952Z,86.9
2017-11-06T05:23:33.594Z,87.1
2017-11-06T05:24:32.359Z,87.2
2017-11-06T05:25:31.749Z,87.6
2017-11-06T05:26:30.643Z,87.7
2017-11-06T05:27:29.650Z,87.5
2017-11-06T05:28:28.662Z,87.5
2017-11-06T05:29:27.935Z,87.7
2017-11-06T05:30:26.565Z,88
2017-11-06T05:31:25.707Z,87.8
2017-11-06T05:32:25.124Z,88
2017-11-06T05:33:24.266Z,88.2
2017-11-06T05:33:54.598Z,88.2
2017-11-06T05:36:21.311Z,88.2
2017-11-06T05:38:19.594Z,88.1
2017-11-06T05:39:18.733Z,88.3
2017-11-06T05:40:17.765Z,88.8
2017-11-06T05:41:16.534Z,88.2
2017-11-06T05:42:15.440Z,88.6
2017-11-06T05:43:14.858Z,88.7
2017-11-06T05:44:13.994Z,88.4
2017-11-06T05:45:12.763Z,88.6
2017-11-06T05:46:12.179Z,88.7
2017-11-06T05:48:10.330Z,88.9
2017-11-06T05:49:09.473Z,88.8
2017-11-06T05:50:08.105Z,89
2017-11-06T05:51:07.252Z,89
2017-11-06T05:52:06.120Z,88.9
2017-11-06T05:53:05.622Z,89.1
2017-11-06T05:54:04.627Z,89.4
2017-11-06T05:55:03.496Z,88.9
2017-11-06T05:58:00.897Z,89.1
2017-11-06T05:59:00.041Z,89.1
2017-11-06T05:59:59.172Z,89.2
2017-11-06T06:00:58.315Z,89.2
2017-11-06T06:01:57.218Z,89.1
2017-11-06T06:02:55.990Z,89.3
2017-11-06T06:03:55.260Z,89
2017-11-06T06:05:53.419Z,89
2017-11-06T06:06:52.159Z,88.9
2017-11-06T06:07:51.436Z,88.9
2017-11-06T06:08:50.710Z,89.1
2017-11-06T06:09:49.609Z,89
2017-11-06T06:10:48.615Z,89.1
2017-11-06T06:11:47.487Z,89.2
2017-11-06T06:12:47.135Z,89
2017-11-06T06:13:45.768Z,89.3
2017-11-06T06:14:45.167Z,89.4
2017-11-06T06:15:44.174Z,89.3
2017-11-06T06:17:42.072Z,89.3
2017-11-06T06:18:41.344Z,89.5
2017-11-06T06:19:40.116Z,89.4
2017-11-06T06:21:38.239Z,89.5
2017-11-06T06:22:37.252Z,89.5
2017-11-06T06:23:36.624Z,89.3
2017-11-06T06:24:35.541Z,89.5
2017-11-06T06:25:34.679Z,89.6
2017-11-06T06:26:33.959Z,89.6
2017-11-06T06:27:32.957Z,89.6
2017-11-06T06:28:32.224Z,89.7
2017-11-06T06:29:31.220Z,89.8
2017-11-06T06:30:29.868Z,89.6
2017-11-06T06:31:28.890Z,89.7
2017-11-06T06:32:28.528Z,89.6
2017-11-06T06:33:27.296Z,89.7
2017-11-06T06:34:26.208Z,89.8
2017-11-06T06:35:25.118Z,89.9
2017-11-06T06:36:24.622Z,89.9
2017-11-06T06:37:23.768Z,89.8
2017-11-06T06:39:21.654Z,89.9
2017-11-06T06:40:20.921Z,89.9
2017-11-06T06:41:19.682Z,90
2017-11-06T06:42:18.833Z,90.2
2017-11-06T06:43:18.077Z,89.9
2017-11-06T06:44:16.950Z,90.2
2017-11-06T06:45:16.083Z,90.4
2017-11-06T06:46:15.216Z,90.5
2017-11-06T06:47:14.232Z,90.6
2017-11-06T06:48:13.474Z,90.7
2017-11-06T06:49:12.114Z,90.5
2017-11-06T06:50:11.111Z,90.5
2017-11-06T06:51:10.750Z,90.2
2017-11-06T06:52:09.655Z,90.4
2017-11-06T06:54:07.679Z,90.5
2017-11-06T06:55:06.844Z,90.6
2017-11-06T06:56:05.850Z,90.6
2017-11-06T06:57:05.006Z,90.6
2017-11-06T06:58:03.788Z,90.6
2017-11-06T06:59:02.921Z,90.6
2017-11-06T07:00:02.063Z,90.7
2017-11-06T07:01:00.850Z,90.5
2017-11-06T07:02:00.372Z,90.5
2017-11-06T07:03:58.259Z,90.6
2017-11-06T07:04:57.532Z,90.4
2017-11-06T07:05:56.304Z,90.5
2017-11-06T07:06:55.448Z,90.4
2017-11-06T07:07:54.350Z,90.4
2017-11-06T07:08:53.995Z,90.4
2017-11-06T07:09:52.502Z,90.4
2017-11-06T07:10:51.641Z,90.4
2017-11-06T07:11:50.641Z,90.4
2017-11-06T07:12:49.786Z,90.3
2017-11-06T07:13:49.149Z,90.4
2017-11-06T07:14:48.156Z,90.2
2017-11-06T07:15:47.153Z,90.1
2017-11-06T07:16:46.425Z,90.1
2017-11-06T07:17:45.295Z,90.2
2017-11-06T07:18:44.567Z,90.2
2017-11-06T07:19:43.570Z,89.7
2017-11-06T07:20:42.580Z,89.9
2017-11-06T07:21:41.211Z,89.7
2017-11-06T07:22:40.354Z,89.2
2017-11-06T07:23:39.449Z,89.5
2017-11-06T07:24:38.827Z,89.6
2017-11-06T07:25:37.966Z,89.8
2017-11-06T07:26:37.102Z,89.6
2017-11-06T07:27:35.843Z,89.7
2017-11-06T07:28:34.852Z,89.6
2017-11-06T07:29:33.755Z,89.5
2017-11-06T07:30:32.892Z,89.5
2017-11-06T07:31:31.896Z,89.6
2017-11-06T07:32:31.405Z,89
2017-11-06T07:33:30.544Z,89
2017-11-06T07:34:29.416Z,88.9
2017-11-06T07:36:27.708Z,89.1
2017-11-06T07:37:26.708Z,88.8
2017-11-06T07:38:25.712Z,89.2
2017-11-06T07:39:24.855Z,89.1
2017-11-06T07:40:23.726Z,88.8
2017-11-06T07:41:22.727Z,89
2017-11-06T07:42:21.871Z,88.8
2017-11-06T07:43:20.658Z,88.9
2017-11-06T07:44:19.929Z,88.8
2017-11-06T07:45:19.066Z,88.8
2017-11-06T07:45:49.287Z,88.8
2017-11-06T07:47:17.217Z,88.8
2017-11-06T07:48:16.222Z,88.9
2017-11-06T07:49:15.097Z,88.7
2017-11-06T07:50:14.374Z,88.8
2017-11-06T07:51:13.385Z,88.2
2017-11-06T07:52:12.666Z,88.4
2017-11-06T07:53:11.445Z,88.5
2017-11-06T07:54:10.588Z,88.6
2017-11-06T07:55:09.717Z,88.4
2017-11-06T07:56:08.854Z,88.2
2017-11-06T07:57:07.728Z,88
2017-11-06T07:58:06.963Z,87.6
2017-11-06T07:59:05.844Z,87.9
2017-11-06T08:00:04.981Z,87.7
2017-11-06T08:01:04.128Z,87.9
2017-11-06T08:02:03.018Z,87.8
2017-11-06T08:03:02.395Z,87.6
2017-11-06T08:04:01.134Z,87.4
2017-11-06T08:05:00.646Z,87.7
2017-11-06T08:05:59.523Z,87.7
2017-11-06T08:06:58.666Z,87.9
2017-11-06T08:08:56.818Z,87.5
2017-11-06T08:09:55.829Z,86.6
2017-11-06T08:10:54.827Z,87.3
2017-11-06T08:11:53.837Z,87.4
2017-11-06T08:12:52.844Z,87
2017-11-06T08:13:52.218Z,86.9
2017-11-06T08:14:51.215Z,87
2017-11-06T08:15:50.230Z,86.9
2017-11-06T08:16:49.252Z,86
2017-11-06T08:17:48.125Z,86.5
2017-11-06T08:18:47.396Z,86.7
2017-11-06T08:19:46.530Z,86.8
2017-11-06T08:20:45.409Z,86.8
2017-11-06T08:21:44.546Z,86.6
2017-11-06T08:22:43.686Z,86.5
2017-11-06T08:23:42.836Z,86.5
2017-11-06T08:24:41.573Z,86.6
2017-11-06T08:25:40.852Z,86.5
2017-11-06T08:26:40.135Z,85.8
2017-11-06T08:27:38.916Z,86.3
2017-11-06T08:28:38.322Z,85.6
2017-11-06T08:29:37.334Z,85.2
2017-11-06T08:30:36.207Z,85.1
2017-11-06T08:31:35.477Z,85
2017-11-06T08:32:34.111Z,85.1
2017-11-06T08:33:33.280Z,85
2017-11-06T08:35:31.428Z,84.9
2017-11-06T08:36:30.566Z,84.7
2017-11-06T08:37:29.436Z,84.5
2017-11-06T08:38:28.571Z,83.5
2017-11-06T08:39:27.573Z,83.9
2017-11-06T08:40:26.835Z,84.3
2017-11-06T08:41:26.102Z,84.3
2017-11-06T08:42:25.134Z,83.7
2017-11-06T08:43:24.106Z,83.8
2017-11-06T08:44:23.014Z,84.2
2017-11-06T08:45:22.014Z,84.1
2017-11-06T08:46:21.034Z,84
2017-11-06T08:47:20.547Z,83.5
2017-11-06T08:48:19.311Z,83.8
2017-11-06T08:50:17.838Z,83.3
2017-11-06T08:51:16.630Z,83.3
2017-11-06T08:52:15.903Z,82.8
2017-11-06T08:53:14.669Z,83.1
2017-11-06T08:54:13.820Z,83.2
2017-11-06T08:55:12.956Z,83.2
2017-11-06T08:56:11.825Z,83.2
2017-11-06T08:57:11.204Z,83.5
2017-11-06T08:58:10.336Z,83.4
2017-11-06T08:59:09.114Z,82.9
2017-11-06T09:00:08.493Z,82.7
2017-11-06T09:01:07.643Z,83
2017-11-06T09:02:06.680Z,83
2017-11-06T09:03:05.699Z,83.1
2017-11-06T09:04:04.476Z,83.3
2017-11-06T09:05:03.620Z,82.7
2017-11-06T09:06:02.627Z,82.1
2017-11-06T09:07:01.785Z,82.2
2017-11-06T09:08:00.783Z,82.1
2017-11-06T09:08:59.810Z,82.3
2017-11-06T09:09:58.873Z,82.7
2017-11-06T09:10:58.012Z,82.2
2017-11-06T09:11:57.156Z,81.9
2017-11-06T09:12:56.294Z,82.5
2017-11-06T09:13:55.033Z,82.1
2017-11-06T09:14:54.674Z,82.2
2017-11-06T09:15:53.171Z,82
2017-11-06T09:16:52.446Z,82.3
2017-11-06T09:17:51.598Z,82.6
2017-11-06T09:18:50.631Z,82
2017-11-06T09:19:20.723Z,82
2017-11-06T09:20:49.057Z,81.9
2017-11-06T09:21:47.695Z,81.9
2017-11-06T09:22:46.963Z,81.8
2017-11-06T09:23:45.973Z,81.6
2017-11-06T09:24:45.117Z,81.5
2017-11-06T09:25:44.263Z,82
2017-11-06T09:26:43.137Z,82.1
2017-11-06T09:28:41.389Z,81.8
2017-11-06T09:29:40.523Z,81.7
2017-11-06T09:30:39.669Z,82.2
2017-11-06T09:31:38.943Z,82
2017-11-06T09:32:37.576Z,81.5
2017-11-06T09:33:36.709Z,81.4
2017-11-06T09:34:36.089Z,81.2
2017-11-06T09:35:34.989Z,81.5
2017-11-06T09:36:34.037Z,81.7
2017-11-06T09:37:33.174Z,81.6
2017-11-06T09:38:32.044Z,81.9
2017-11-06T09:39:31.185Z,81.7
2017-11-06T09:40:30.571Z,81.6
2017-11-06T09:41:29.569Z,81.4
2017-11-06T09:42:28.576Z,81.2
2017-11-06T09:42:59.154Z,81.2
2017-11-06T09:43:29.740Z,81.3
2017-11-06T09:44:26.496Z,81.4
2017-11-06T09:45:25.767Z,81.7
2017-11-06T09:46:24.907Z,81.1
2017-11-06T09:48:22.924Z,81
2017-11-06T09:49:21.828Z,80.5
2017-11-06T09:51:20.218Z,81
2017-11-06T09:52:19.238Z,81.1
2017-11-06T09:53:18.392Z,80.9
2017-11-06T09:54:17.667Z,80.8
2017-11-06T09:55:16.431Z,80
2017-11-06T09:56:15.569Z,80.1
2017-11-06T09:57:14.584Z,80.4
2017-11-06T09:58:13.603Z,80.3
2017-11-06T09:59:12.986Z,80.8
2017-11-06T09:59:43.309Z,80.8
2017-11-06T10:00:13.895Z,80.2
2017-11-06T10:00:44.212Z,80.2
2017-11-06T10:01:14.532Z,80.1
2017-11-06T10:01:45.116Z,80.1
2017-11-06T10:03:09.086Z,80.1
2017-11-06T10:04:08.360Z,79.7
2017-11-06T10:05:07.370Z,79.7
2017-11-06T10:06:06.811Z,80
2017-11-06T10:07:05.454Z,80.4
2017-11-06T10:08:04.594Z,80.1
2017-11-06T10:09:03.732Z,79.4
2017-11-06T10:10:02.881Z,79.8
2017-11-06T10:11:01.884Z,79.4
2017-11-06T10:12:00.887Z,79.8
2017-11-06T10:12:59.896Z,79.1
2017-11-06T10:13:59.171Z,79.4
2017-11-06T10:14:58.446Z,79.2
2017-11-06T10:15:57.199Z,79.1
2017-11-06T10:16:56.606Z,79.3
2017-11-06T10:17:55.624Z,79.1
2017-11-06T10:18:54.776Z,78.9
2017-11-06T10:19:53.814Z,78.8
2017-11-06T10:20:52.582Z,79
2017-11-06T10:21:51.718Z,78.7
2017-11-06T10:22:50.863Z,79.3
2017-11-06T10:23:50.141Z,79.6
2017-11-06T10:25:48.291Z,79.4
2017-11-06T10:26:47.436Z,79.1
2017-11-06T10:27:46.436Z,79.5
2017-11-06T10:28:45.576Z,79.5
2017-11-06T10:29:44.858Z,79.8
2017-11-06T10:31:43.003Z,79.2
2017-11-06T10:32:42.138Z,79.5
2017-11-06T10:35:39.049Z,79.5
2017-11-06T10:37:37.361Z,79.5
2017-11-06T10:38:36.220Z,80
2017-11-06T10:40:34.474Z,79.7
2017-11-06T10:41:33.477Z,80.2
2017-11-06T10:42:03.938Z,80.2
2017-11-06T10:42:34.381Z,79.7
2017-11-06T10:43:32.139Z,79.4
2017-11-06T10:44:30.908Z,79.2
2017-11-06T10:45:29.977Z,79
2017-11-06T10:46:29.378Z,79.4
2017-11-06T10:47:28.027Z,79.1
2017-11-06T10:48:27.401Z,78.8
2017-11-06T10:49:26.173Z,78.6
2017-11-06T10:50:25.449Z,78.2
2017-11-06T10:51:24.321Z,78.1
2017-11-06T10:52:23.446Z,77.9
2017-11-06T10:53:22.719Z,78.1
2017-11-06T10:54:21.982Z,78.5
2017-11-06T10:56:19.876Z,78.1
2017-11-06T10:57:19.166Z,77.7
2017-11-06T10:58:17.932Z,78
2017-11-06T10:59:17.206Z,77.3
2017-11-06T11:00:16.240Z,77.7
2017-11-06T11:01:15.380Z,77.7
2017-11-06T11:02:14.892Z,77.2
2017-11-06T11:03:13.671Z,77.5
2017-11-06T11:04:12.810Z,77.7
2017-11-06T11:05:11.954Z,77.5
2017-11-06T11:06:10.856Z,77.5
2017-11-06T11:07:09.762Z,77.8
2017-11-06T11:08:09.402Z,77.6
2017-11-06T11:09:08.534Z,77.7
2017-11-06T11:10:07.441Z,77.4
2017-11-06T11:11:06.572Z,77.2
2017-11-06T11:12:05.363Z,77
2017-11-06T11:13:04.740Z,77
2017-11-06T11:14:03.881Z,76.6
2017-11-06T11:16:01.899Z,77.2
2017-11-06T11:17:01.163Z,77.3
2017-11-06T11:17:31.244Z,77.3
2017-11-06T11:18:01.712Z,77.2
2017-11-06T11:18:59.350Z,77.2
2017-11-06T11:19:58.099Z,77.3
2017-11-06T11:20:57.358Z,77.2
2017-11-06T11:21:56.492Z,76.2
2017-11-06T11:23:54.642Z,76.4
2017-11-06T11:24:53.648Z,76.3
2017-11-06T11:25:52.921Z,76.4
2017-11-06T11:26:52.059Z,76.4
2017-11-06T11:27:51.058Z,76.4
2017-11-06T11:28:50.189Z,76.6
2017-11-06T11:29:49.455Z,76.3
2017-11-06T11:30:48.323Z,76.5
2017-11-06T11:31:47.598Z,75.9
2017-11-06T11:32:46.495Z,75.5
2017-11-06T11:33:45.868Z,75.9
2017-11-06T11:34:44.732Z,75.8
2017-11-06T11:35:44.011Z,75.6
2017-11-06T11:36:42.872Z,76
2017-11-06T11:37:41.881Z,76
2017-11-06T11:38:41.392Z,75.7
2017-11-06T11:39:40.537Z,75.5
2017-11-06T11:40:39.540Z,76
2017-11-06T11:42:37.424Z,75.9
2017-11-06T11:43:36.803Z,76
2017-11-06T11:44:35.804Z,75.4
2017-11-06T11:45:34.815Z,75.9
2017-11-06T11:46:33.957Z,76.1
2017-11-06T11:47:33.371Z,75.5
2017-11-06T11:48:32.236Z,74.8
2017-11-06T11:49:31.256Z,74.7
2017-11-06T11:50:30.518Z,74.4
2017-11-06T11:51:29.388Z,74.9
2017-11-06T11:53:28.043Z,75
2017-11-06T11:55:25.811Z,75.3
2017-11-06T11:56:24.947Z,75.4
2017-11-06T11:58:23.598Z,75.8
2017-11-06T11:59:22.360Z,75.9
2017-11-06T12:00:21.496Z,75.9
2017-11-06T12:01:20.867Z,76.2
2017-11-06T12:02:19.744Z,76.5
2017-11-06T12:03:19.009Z,76.3
2017-11-06T12:04:18.029Z,75.9
2017-11-06T12:05:17.164Z,75.4
2017-11-06T12:06:16.438Z,75.8
2017-11-06T12:07:15.353Z,75.4
2017-11-06T12:08:14.623Z,75.5
2017-11-06T12:09:13.887Z,75.5
2017-11-06T12:10:12.755Z,75.3
2017-11-06T12:11:11.890Z,74.9
2017-11-06T12:12:11.045Z,74.7
2017-11-06T12:13:10.203Z,74.8
2017-11-06T12:14:08.870Z,74.7
2017-11-06T12:15:08.172Z,75
2017-11-06T12:16:07.467Z,74.2
2017-11-06T12:18:05.497Z,73.7
2017-11-06T12:19:04.781Z,74
2017-11-06T12:20:04.051Z,73.4
2017-11-06T12:21:03.201Z,73.3
2017-11-06T12:23:01.228Z,73.1
2017-11-06T12:24:00.131Z,73.1
2017-11-06T12:24:59.412Z,73.4
2017-11-06T12:25:58.424Z,73.5
2017-11-06T12:27:56.581Z,74.1
2017-11-06T12:28:55.995Z,74.6
2017-11-06T12:29:54.995Z,74.9
2017-11-06T12:30:53.876Z,74.3
2017-11-06T12:31:53.265Z,73.2
2017-11-06T12:32:52.527Z,73.5
2017-11-06T12:33:51.296Z,74.3
2017-11-06T12:34:50.304Z,73.2
2017-11-06T12:35:49.805Z,73.5
2017-11-06T12:36:48.976Z,74.3
2017-11-06T12:37:47.763Z,73.7
2017-11-06T12:38:47.173Z,73.9
2017-11-06T12:39:46.219Z,73.5
2017-11-06T12:40:45.230Z,73.7
2017-11-06T12:41:44.603Z,73.1
2017-11-06T12:42:43.368Z,73.5
2017-11-06T12:44:41.767Z,73.5
2017-11-06T12:45:40.912Z,73.1
2017-11-06T12:46:40.054Z,72.2
2017-11-06T12:47:39.316Z,72.6
2017-11-06T12:48:38.321Z,73.1
2017-11-06T12:49:37.091Z,72.6
2017-11-06T12:50:36.373Z,72.4
2017-11-06T12:51:06.825Z,72.4
2017-11-06T12:51:37.526Z,72.6
2017-11-06T12:52:34.392Z,72.7
2017-11-06T12:53:33.791Z,73.3
2017-11-06T12:54:33.061Z,72.5
2017-11-06T12:55:32.199Z,72.2
2017-11-06T12:56:31.340Z,72.3
2017-11-06T12:57:29.977Z,72.8
2017-11-06T12:59:28.626Z,72.4
2017-11-06T13:01:26.508Z,71.9
2017-11-06T13:02:25.906Z,71.9
2017-11-06T13:03:25.050Z,71.9
2017-11-06T13:04:23.964Z,72.1
2017-11-06T13:05:22.974Z,72.3
2017-11-06T13:06:22.109Z,71.9
2017-11-06T13:07:21.487Z,71
2017-11-06T13:08:20.628Z,71.5
2017-11-06T13:11:17.917Z,71.1
2017-11-06T13:12:16.918Z,71
2017-11-06T13:13:16.192Z,71
2017-11-06T13:14:15.337Z,70.9
2017-11-06T13:15:14.476Z,71.7
2017-11-06T13:17:12.995Z,72.3
2017-11-06T13:18:12.005Z,72.6
2017-11-06T13:19:11.286Z,72.9
2017-11-06T13:21:09.172Z,72.9
2017-11-06T13:22:08.178Z,72.6
2017-11-06T13:23:07.319Z,72.4
2017-11-06T13:24:06.484Z,72.6
2017-11-06T13:25:05.853Z,72.7
2017-11-06T13:26:04.987Z,72.5
2017-11-06T13:28:03.011Z,72.1
2017-11-06T13:29:02.195Z,72.2
2017-11-06T13:30:01.330Z,71.7
2017-11-06T13:31:00.744Z,72.1
2017-11-06T13:31:59.513Z,72.2
2017-11-06T13:32:58.663Z,71.5
2017-11-06T13:33:58.045Z,71.6
2017-11-06T13:34:57.177Z,71.2
2017-11-06T13:35:56.312Z,71.3
2017-11-06T13:36:55.579Z,71.2
2017-11-06T13:37:54.712Z,71.2
2017-11-06T13:38:53.580Z,70.9
2017-11-06T13:39:52.578Z,70.9
2017-11-06T13:40:51.717Z,70.1
2017-11-06T13:41:50.730Z,70.3
2017-11-06T13:43:49.401Z,70.6
2017-11-06T13:44:48.579Z,70.4
2017-11-06T13:45:47.352Z,70.9
2017-11-06T13:46:46.483Z,71
2017-11-06T13:47:45.625Z,70.8
2017-11-06T13:48:44.639Z,71
2017-11-06T13:49:43.776Z,71.1
2017-11-06T13:50:43.151Z,70.8
2017-11-06T13:51:42.020Z,71.3
2017-11-06T13:52:41.656Z,71.2
2017-11-06T13:53:40.529Z,71.8
2017-11-06T13:54:39.398Z,71.6
2017-11-06T13:55:38.666Z,72